createdAt,value
2023-03-17T00:41:04.641Z,92808.00
2023-03-17T00:42:04.728Z,92806.00
2023-03-17T00:43:04.784Z,92810.00
2023-03-17T01:24:08.362Z,92793.00
2023-03-17T01:33:07.959Z,92783.00
2023-03-17T01:34:08.017Z,92781.00
2023-03-17T01:35:08.072Z,92775.00
2023-03-17T01:36:08.150Z,92775.00
2023-03-17T01:37:08.161Z,92767.00
2023-03-17T01:38:08.207Z,92765.00
2023-03-17T01:39:08.248Z,92763.00
2023-03-17T01:40:08.293Z,92765.00
2023-03-17T01:41:08.344Z,92773.00
2023-03-17T01:42:08.410Z,92779.00
2023-03-17T01:43:08.529Z,92775.00
2023-03-17T01:44:08.509Z,92773.00
2023-03-17T01:45:08.549Z,92767.00
2023-03-17T01:46:08.671Z,92759.00
2023-03-17T01:47:08.634Z,92749.00
2023-03-17T01:48:08.766Z,92751.00
2023-03-17T01:49:08.732Z,92771.00
2023-03-17T01:50:08.800Z,92763.00
2023-03-17T01:51:08.844Z,92763.00
2023-03-17T01:52:08.876Z,92763.00
2023-03-17T02:28:10.716Z,92744.00
2023-03-17T02:29:10.747Z,92744.00
2023-03-17T02:30:10.797Z,92747.00
2023-03-17T02:31:10.844Z,92747.00
2023-03-17T02:32:10.875Z,92740.00
2023-03-17T02:33:10.910Z,92740.00
2023-03-17T02:34:10.964Z,92746.00
2023-03-17T02:35:10.996Z,92747.00
2023-03-17T02:36:11.083Z,92744.00
2023-03-17T02:37:11.065Z,92757.00
2023-03-17T02:38:11.120Z,92759.00
2023-03-17T02:39:11.145Z,92749.00
2023-03-17T02:41:11.224Z,92765.00
2023-03-17T02:42:11.410Z,92763.00
2023-03-17T02:43:11.328Z,92763.00
2023-03-17T02:44:11.359Z,92747.00
2023-03-17T02:45:11.398Z,92751.00
2023-03-17T02:46:11.485Z,92753.00
2023-03-17T02:47:11.483Z,92751.00
2023-03-17T02:48:11.522Z,92749.00
2023-03-17T02:49:11.563Z,92753.00
2023-03-17T02:50:11.607Z,92751.00
2023-03-17T02:51:11.651Z,92753.00
2023-03-17T02:52:11.689Z,92753.00
2023-03-17T02:53:11.816Z,92753.00
2023-03-17T02:54:11.789Z,92753.00
2023-03-17T02:55:11.875Z,92755.00
2023-03-17T02:56:11.943Z,92759.00
2023-03-17T02:57:11.901Z,92759.00
2023-03-17T02:58:12.023Z,92751.00
2023-03-17T02:59:11.983Z,92757.00
2023-03-17T03:00:12.016Z,92757.00
2023-03-17T03:01:12.072Z,92744.00
2023-03-17T03:02:12.150Z,92749.00
2023-03-17T03:03:12.136Z,92755.00
2023-03-17T03:04:12.202Z,92747.00
2023-03-17T03:05:12.224Z,92749.00
2023-03-17T03:06:12.259Z,92744.00
2023-03-17T03:07:12.875Z,92747.00
2023-03-17T03:08:12.358Z,92744.00
2023-03-17T03:09:12.385Z,92738.00
2023-03-17T03:10:12.430Z,92742.00
2023-03-17T03:11:12.466Z,92749.00
2023-03-17T03:12:12.509Z,92747.00
2023-03-17T03:13:12.541Z,92732.00
2023-03-17T03:14:12.574Z,92744.00
2023-03-17T03:15:12.680Z,92744.00
2023-03-17T03:16:12.714Z,92744.00
2023-03-17T03:17:12.709Z,92746.00
2023-03-17T03:18:12.755Z,92746.00
2023-03-17T03:19:12.802Z,92740.00
2023-03-17T03:20:12.850Z,92744.00
2023-03-17T03:21:12.864Z,92751.00
2023-03-17T03:22:12.912Z,92753.00
2023-03-17T03:23:12.943Z,92730.00
2023-03-17T03:24:12.985Z,92744.00
2023-03-17T03:25:13.021Z,92746.00
2023-03-17T03:26:13.052Z,92746.00
2023-03-17T03:27:13.082Z,92746.00
2023-03-17T03:28:13.129Z,92747.00
2023-03-17T03:29:13.169Z,92738.00
2023-03-17T03:30:13.211Z,92744.00
2023-03-17T03:31:13.252Z,92757.00
2023-03-17T03:32:13.289Z,92747.00
2023-03-17T03:33:13.338Z,92744.00
2023-03-17T03:34:13.364Z,92747.00
2023-03-17T03:35:13.410Z,92749.00
2023-03-17T03:36:13.526Z,92759.00
2023-03-17T03:37:13.486Z,92759.00
2023-03-17T03:38:13.528Z,92763.00
2023-03-17T03:39:14.510Z,92755.00
2023-03-17T03:40:13.609Z,92769.00
2023-03-17T03:41:13.633Z,92767.00
2023-03-17T03:42:13.666Z,92771.00
2023-03-17T03:43:23.036Z,92763.00
2023-03-17T03:44:14.724Z,92763.00
2023-03-17T03:45:13.733Z,92759.00
2023-03-17T03:46:13.786Z,92757.00
2023-03-17T04:12:14.102Z,92744.00
2023-03-17T04:13:14.124Z,92755.00
2023-03-17T04:14:14.126Z,92755.00
2023-03-17T04:15:14.145Z,92734.00
2023-03-17T04:16:14.190Z,92746.00
2023-03-17T04:17:14.163Z,92734.00
2023-03-17T04:18:14.191Z,92738.00
2023-03-17T04:19:14.272Z,92746.00
2023-03-17T04:20:14.331Z,92746.00
2023-03-17T04:21:14.363Z,92742.00
2023-03-17T04:22:14.441Z,92742.00
2023-03-17T04:23:14.519Z,92751.00
2023-03-17T04:24:14.604Z,92749.00
2023-03-17T04:25:14.689Z,92753.00
2023-03-17T04:26:14.785Z,92746.00
2023-03-17T04:27:14.846Z,92744.00
2023-03-17T04:28:14.908Z,92742.00
2023-03-17T04:29:14.994Z,92740.00
2023-03-17T04:30:15.079Z,92738.00
2023-03-17T04:31:15.206Z,92734.00
2023-03-17T04:32:15.227Z,92730.00
2023-03-17T04:33:15.320Z,92736.00
2023-03-17T04:34:15.388Z,92736.00
2023-03-17T04:35:15.456Z,92744.00
2023-03-17T04:36:16.402Z,92757.00
2023-03-17T04:37:15.609Z,92755.00
2023-03-17T04:38:15.676Z,92746.00
2023-03-17T04:39:15.760Z,92746.00
2023-03-17T04:40:15.823Z,92749.00
2023-03-17T04:41:15.959Z,92749.00
2023-03-17T04:42:15.967Z,92740.00
2023-03-17T04:43:16.039Z,92738.00
2023-03-17T04:44:16.108Z,92742.00
2023-03-17T04:45:16.195Z,92742.00
2023-03-17T04:46:16.430Z,92746.00
2023-03-17T04:47:16.410Z,92746.00
2023-03-17T04:48:16.414Z,92744.00
2023-03-17T04:49:16.498Z,92746.00
2023-03-17T04:50:16.670Z,92736.00
2023-03-17T04:51:16.622Z,92738.00
2023-03-17T04:52:16.688Z,92746.00
2023-03-17T04:53:16.762Z,92738.00
2023-03-17T04:54:16.839Z,92736.00
2023-03-17T04:55:16.896Z,92736.00
2023-03-17T04:56:16.969Z,92738.00
2023-03-17T04:57:17.042Z,92746.00
2023-03-17T04:58:29.821Z,92744.00
2023-03-17T04:59:18.101Z,92747.00
2023-03-17T05:00:17.107Z,92749.00
2023-03-17T05:01:17.198Z,92749.00
2023-03-17T05:02:17.228Z,92749.00
2023-03-17T05:03:26.811Z,92751.00
2023-03-17T05:04:30.773Z,92744.00
2023-03-17T05:05:18.152Z,92751.00
2023-03-17T05:43:17.989Z,92730.00
2023-03-17T05:44:18.066Z,92724.00
2023-03-17T05:45:18.073Z,92724.00
2023-03-17T05:46:20.340Z,92730.00
2023-03-17T05:47:18.163Z,92732.00
2023-03-17T05:48:18.236Z,92734.00
2023-03-17T05:49:18.291Z,92736.00
2023-03-17T05:50:18.353Z,92736.00
2023-03-17T05:51:18.429Z,92742.00
2023-03-17T06:57:20.859Z,92730.00
2023-03-17T07:40:21.682Z,92728.00
2023-03-17T09:30:28.085Z,92571.00
2023-03-17T09:37:28.512Z,92554.00
2023-03-17T09:44:27.972Z,92548.00
2023-03-17T09:45:27.979Z,92550.00
2023-03-17T09:46:28.100Z,92546.00
2023-03-17T09:47:28.062Z,92546.00
2023-03-17T09:48:28.073Z,92548.00
2023-03-17T09:49:28.128Z,92540.00
2023-03-17T09:50:28.205Z,92542.00
2023-03-17T09:51:28.271Z,92540.00
2023-03-17T09:52:28.333Z,92536.00
2023-03-17T09:53:28.397Z,92534.00
2023-03-17T09:54:28.457Z,92534.00
2023-03-17T09:55:28.570Z,92536.00
2023-03-17T09:56:29.020Z,92536.00
2023-03-17T09:57:28.709Z,92540.00
2023-03-17T09:58:28.708Z,92536.00
2023-03-17T09:59:28.782Z,92530.00
2023-03-17T10:00:28.844Z,92530.00
2023-03-17T10:01:28.963Z,92526.00
2023-03-17T10:02:29.013Z,92530.00
2023-03-17T10:03:29.018Z,92526.00
2023-03-17T10:04:29.123Z,92522.00
2023-03-17T10:05:29.451Z,92522.00
2023-03-17T10:06:29.154Z,92516.00
2023-03-17T11:38:32.447Z,92354.00
2023-03-17T11:39:32.574Z,92348.00
2023-03-17T11:40:32.906Z,92348.00
2023-03-17T11:42:32.704Z,92350.00
2023-03-17T11:43:33.572Z,92346.00
2023-03-17T11:44:32.898Z,92336.00
2023-03-17T11:45:32.905Z,92334.00
2023-03-17T11:46:33.041Z,92319.00
2023-03-17T11:47:33.024Z,92327.00
2023-03-17T11:48:33.063Z,92325.00
2023-03-17T11:49:33.121Z,92321.00
2023-03-17T11:50:33.551Z,92317.00
2023-03-17T11:51:33.254Z,92321.00
2023-03-17T11:52:33.320Z,92321.00
2023-03-17T11:53:33.387Z,92319.00
2023-03-17T11:54:33.437Z,92325.00
2023-03-17T11:55:33.594Z,92321.00
2023-03-17T11:56:33.568Z,92321.00
2023-03-17T11:57:33.632Z,92319.00
2023-03-17T11:58:33.690Z,92334.00
2023-03-17T11:59:33.749Z,92317.00
2023-03-17T12:00:34.567Z,92321.00
2023-03-17T12:01:33.872Z,92315.00
2023-03-17T12:02:33.945Z,92315.00
2023-03-17T12:03:34.053Z,92313.00
2023-03-17T12:04:34.127Z,92311.00
2023-03-17T12:05:34.112Z,92309.00
2023-03-17T12:06:34.184Z,92309.00
2023-03-17T12:07:34.237Z,92307.00
2023-03-17T12:08:34.303Z,92303.00
2023-03-17T12:09:34.377Z,92305.00
2023-03-17T12:10:34.420Z,92303.00
2023-03-17T12:11:34.483Z,92301.00
2023-03-17T12:12:34.538Z,92297.00
2023-03-17T12:13:34.591Z,92303.00
2023-03-17T12:14:35.100Z,92299.00
2023-03-17T12:15:34.740Z,92295.00
2023-03-17T12:16:34.722Z,92293.00
2023-03-17T12:17:34.789Z,92287.00
2023-03-17T12:18:34.834Z,92291.00
2023-03-17T12:19:34.880Z,92285.00
2023-03-17T12:20:35.003Z,92285.00
2023-03-17T12:21:34.979Z,92283.00
2023-03-17T12:22:35.037Z,92280.00
2023-03-17T12:23:35.089Z,92283.00
2023-03-17T12:24:35.150Z,92276.00
2023-03-17T13:41:37.974Z,92205.00
2023-03-17T13:43:38.603Z,92199.00
2023-03-17T13:44:38.010Z,92211.00
2023-03-17T13:45:38.032Z,92205.00
2023-03-17T13:46:38.156Z,92205.00
2023-03-17T13:47:38.066Z,92205.00
2023-03-17T13:48:38.122Z,92203.00
2023-03-17T13:49:38.123Z,92199.00
2023-03-17T13:50:38.206Z,92199.00
2023-03-17T13:51:40.149Z,92207.00
2023-03-17T13:52:38.175Z,92205.00
2023-03-17T13:53:38.187Z,92205.00
2023-03-17T13:54:38.219Z,92199.00
2023-03-17T13:55:38.236Z,92199.00
2023-03-17T13:56:38.218Z,92205.00
2023-03-17T13:57:38.220Z,92195.00
2023-03-17T13:58:38.235Z,92197.00
2023-03-17T13:59:38.246Z,92195.00
2023-03-17T14:00:38.292Z,92199.00
2023-03-17T14:01:38.322Z,92197.00
2023-03-17T14:02:38.267Z,92199.00
2023-03-17T14:03:38.334Z,92201.00
2023-03-17T14:04:38.284Z,92195.00
2023-03-17T14:05:38.302Z,92197.00
2023-03-17T14:06:38.310Z,92199.00
2023-03-17T14:07:38.322Z,92195.00
2023-03-17T14:08:38.345Z,92195.00
2023-03-17T14:09:38.352Z,92195.00
2023-03-17T14:10:38.438Z,92193.00
2023-03-17T14:11:38.634Z,92191.00
2023-03-17T14:12:38.392Z,92187.00
2023-03-17T14:13:38.395Z,92193.00
2023-03-17T14:14:38.408Z,92193.00
2023-03-17T14:15:38.424Z,92189.00
2023-03-17T14:16:38.505Z,92185.00
2023-03-17T14:17:38.486Z,92183.00
2023-03-17T14:18:38.470Z,92187.00
2023-03-17T14:19:38.521Z,92179.00
2023-03-17T14:20:38.498Z,92181.00
2023-03-17T14:21:38.517Z,92185.00
2023-03-17T14:22:38.527Z,92183.00
2023-03-17T14:23:39.118Z,92185.00
2023-03-17T14:24:38.538Z,92181.00
2023-03-17T14:25:38.553Z,92181.00
2023-03-17T14:26:38.558Z,92179.00
2023-03-17T14:27:38.559Z,92181.00
2023-03-17T14:28:39.117Z,92178.00
2023-03-17T14:29:38.583Z,92179.00
2023-03-17T14:30:38.690Z,92174.00
2023-03-17T14:31:38.607Z,92183.00
2023-03-17T14:32:38.668Z,92183.00
2023-03-17T14:33:38.626Z,92178.00
2023-03-17T14:34:38.629Z,92179.00
2023-03-17T14:35:38.679Z,92178.00
2023-03-17T14:36:38.641Z,92178.00
2023-03-17T14:37:38.662Z,92174.00
2023-03-17T14:38:38.672Z,92174.00
2023-03-17T14:39:38.679Z,92179.00
2023-03-17T14:40:38.679Z,92174.00
2023-03-17T14:41:38.701Z,92178.00
2023-03-17T14:42:38.695Z,92176.00
2023-03-17T14:43:38.722Z,92176.00
2023-03-17T14:44:38.700Z,92174.00
2023-03-17T14:45:38.760Z,92174.00
2023-03-17T14:46:38.729Z,92178.00
2023-03-17T14:47:38.828Z,92174.00
2023-03-17T14:48:38.748Z,92176.00
2023-03-17T14:49:38.754Z,92172.00
2023-03-17T14:50:38.765Z,92170.00
2023-03-17T14:51:38.777Z,92172.00
2023-03-17T14:52:38.789Z,92174.00
2023-03-17T14:58:38.848Z,92172.00
2023-03-17T14:59:38.866Z,92176.00
2023-03-17T15:00:38.901Z,92176.00
2023-03-17T15:02:38.947Z,92170.00
2023-03-17T15:03:38.892Z,92170.00
2023-03-17T15:04:38.895Z,92170.00
2023-03-17T15:05:38.930Z,92166.00
2023-03-17T15:06:38.918Z,92164.00
2023-03-17T15:07:38.930Z,92170.00
2023-03-17T15:08:39.148Z,92174.00
2023-03-17T15:09:38.956Z,92170.00
2023-03-17T15:10:38.955Z,92170.00
2023-03-17T15:11:38.964Z,92160.00
2023-03-17T15:12:38.980Z,92164.00
2023-03-17T15:13:38.999Z,92164.00
2023-03-17T15:14:38.987Z,92160.00
2023-03-17T15:15:39.019Z,92160.00
2023-03-17T15:16:39.058Z,92162.00
2023-03-17T15:17:39.033Z,92158.00
2023-03-17T15:18:39.077Z,92162.00
2023-03-17T15:19:39.118Z,92166.00
2023-03-17T15:20:39.153Z,92160.00
2023-03-17T15:21:39.188Z,92158.00
2023-03-17T15:22:39.234Z,92160.00
2023-03-17T15:23:39.282Z,92162.00
2023-03-17T15:24:39.330Z,92162.00
2023-03-17T15:25:39.367Z,92160.00
2023-03-17T15:26:39.403Z,92164.00
2023-03-17T15:27:39.444Z,92162.00
2023-03-17T15:28:39.483Z,92166.00
2023-03-17T15:31:39.625Z,92166.00
2023-03-17T15:41:40.052Z,92162.00
2023-03-17T15:42:40.201Z,92158.00
2023-03-17T15:43:40.131Z,92162.00
2023-03-17T15:44:40.178Z,92162.00
2023-03-17T15:45:40.224Z,92162.00
2023-03-17T15:46:40.268Z,92162.00
2023-03-17T15:47:40.315Z,92162.00
2023-03-17T15:48:40.358Z,92166.00
2023-03-17T15:49:40.404Z,92162.00
2023-03-17T15:50:40.458Z,92164.00
2023-03-17T15:51:40.524Z,92164.00
2023-03-17T15:52:40.549Z,92166.00
2023-03-17T15:53:40.594Z,92168.00
2023-03-17T15:54:40.648Z,92166.00
2023-03-17T15:55:40.700Z,92168.00
2023-03-17T15:56:40.821Z,92170.00
2023-03-17T15:57:42.764Z,92172.00
2023-03-17T15:58:40.898Z,92168.00
2023-03-17T15:59:40.869Z,92168.00
2023-03-17T16:00:40.905Z,92166.00
2023-03-17T16:01:41.006Z,92172.00
2023-03-17T16:02:40.998Z,92168.00
2023-03-17T16:03:41.041Z,92166.00
2023-03-17T16:04:41.117Z,92174.00
2023-03-17T16:05:41.137Z,92176.00
2023-03-17T16:06:41.194Z,92176.00
2023-03-17T16:07:41.236Z,92174.00
2023-03-17T16:08:41.285Z,92176.00
2023-03-17T16:09:41.337Z,92170.00
2023-03-17T16:10:41.382Z,92179.00
2023-03-17T16:11:41.418Z,92178.00
2023-03-17T16:12:41.473Z,92176.00
2023-03-17T16:13:41.518Z,92172.00
2023-03-17T16:14:41.573Z,92176.00
2023-03-17T16:15:41.661Z,92176.00
2023-03-17T16:16:41.656Z,92176.00
2023-03-17T16:17:41.701Z,92181.00
2023-03-17T16:18:41.761Z,92181.00
2023-03-17T16:19:41.829Z,92179.00
2023-03-17T16:20:41.861Z,92178.00
2023-03-17T16:21:41.915Z,92176.00
2023-03-17T16:22:42.035Z,92168.00
2023-03-17T16:23:42.021Z,92172.00
2023-03-17T16:24:42.059Z,92172.00
2023-03-17T16:25:42.108Z,92172.00
2023-03-17T16:26:42.168Z,92178.00
2023-03-17T16:27:42.212Z,92181.00
2023-03-17T16:28:43.187Z,92178.00
2023-03-17T16:29:42.326Z,92179.00
2023-03-17T16:30:42.373Z,92178.00
2023-03-17T16:31:42.492Z,92172.00
2023-03-17T16:32:42.501Z,92178.00
2023-03-17T16:33:42.526Z,92181.00
2023-03-17T16:34:42.569Z,92178.00
2023-03-17T16:35:42.684Z,92183.00
2023-03-17T16:36:42.673Z,92183.00
2023-03-17T16:37:42.726Z,92183.00
2023-03-17T16:38:42.778Z,92179.00
2023-03-17T16:39:42.821Z,92185.00
2023-03-17T16:40:42.870Z,92189.00
2023-03-17T16:41:42.925Z,92189.00
2023-03-17T16:42:43.056Z,92189.00
2023-03-17T16:43:43.044Z,92187.00
2023-03-17T16:44:43.137Z,92189.00
2023-03-17T16:45:43.117Z,92189.00
2023-03-17T16:46:43.208Z,92191.00
2023-03-17T16:47:43.217Z,92195.00
2023-03-17T16:48:43.264Z,92189.00
2023-03-17T16:49:43.337Z,92191.00
2023-03-17T16:50:43.444Z,92191.00
2023-03-17T16:51:43.431Z,92197.00
2023-03-17T16:52:43.494Z,92197.00
2023-03-17T16:53:43.547Z,92197.00
2023-03-17T16:54:43.589Z,92205.00
2023-03-17T16:55:43.655Z,92199.00
2023-03-17T16:56:43.711Z,92213.00
2023-03-17T16:57:43.753Z,92201.00
2023-03-17T16:58:43.800Z,92205.00
2023-03-17T16:59:43.852Z,92209.00
2023-03-17T17:00:43.912Z,92213.00
2023-03-17T17:01:44.000Z,92215.00
2023-03-17T17:02:44.037Z,92219.00
2023-03-17T17:03:44.084Z,92209.00
2023-03-17T17:04:44.149Z,92221.00
2023-03-17T17:05:44.212Z,92223.00
2023-03-17T17:06:44.228Z,92217.00
2023-03-17T17:07:44.278Z,92223.00
2023-03-17T17:08:44.346Z,92221.00
2023-03-17T17:09:44.393Z,92225.00
2023-03-17T17:10:44.442Z,92221.00
2023-03-17T17:11:44.496Z,92232.00
2023-03-17T18:12:48.001Z,92295.00
2023-03-17T18:13:48.053Z,92295.00
2023-03-17T18:15:48.230Z,92299.00
2023-03-17T18:16:48.334Z,92301.00
2023-03-17T18:17:48.302Z,92307.00
2023-03-17T18:18:48.356Z,92297.00
2023-03-17T18:19:48.425Z,92299.00
2023-03-17T18:20:48.530Z,92291.00
2023-03-17T18:21:48.554Z,92297.00
2023-03-17T18:22:48.617Z,92299.00
2023-03-17T18:23:48.705Z,92311.00
2023-03-17T18:24:48.753Z,92301.00
2023-03-17T18:25:48.809Z,92303.00
2023-03-17T18:46:50.208Z,92334.00
2023-03-17T18:47:50.294Z,92340.00
2023-03-17T18:48:50.343Z,92334.00
2023-03-17T18:49:50.730Z,92342.00
2023-03-17T18:50:50.475Z,92336.00
2023-03-17T18:51:50.541Z,92336.00
2023-03-17T18:52:50.603Z,92334.00
2023-03-17T18:53:50.693Z,92338.00
2023-03-17T18:54:50.826Z,92336.00
2023-03-17T18:55:50.810Z,92348.00
2023-03-17T18:56:50.877Z,92340.00
2023-03-17T19:35:53.528Z,92352.00
2023-03-17T19:37:53.634Z,92342.00
2023-03-17T19:38:53.700Z,92346.00
2023-03-17T19:39:53.776Z,92346.00
2023-03-17T19:40:53.843Z,92344.00
2023-03-17T19:41:53.902Z,92346.00
2023-03-17T19:42:53.984Z,92338.00
2023-03-17T19:43:54.737Z,92346.00
2023-03-17T19:44:54.117Z,92348.00
2023-03-17T19:45:54.201Z,92342.00
2023-03-17T19:46:54.256Z,92327.00
2023-03-17T19:47:54.318Z,92350.00
2023-03-17T19:48:54.432Z,92350.00
2023-03-17T19:49:54.468Z,92350.00
2023-03-17T19:50:54.522Z,92350.00
2023-03-17T19:51:54.597Z,92356.00
2023-03-17T19:52:54.665Z,92358.00
2023-03-17T19:53:54.733Z,92362.00
2023-03-17T19:54:54.858Z,92354.00
2023-03-17T19:55:54.963Z,92358.00
2023-03-17T19:56:54.948Z,92354.00
2023-03-17T19:57:55.015Z,92350.00
2023-03-17T19:58:55.089Z,92340.00
2023-03-17T19:59:55.261Z,92350.00
2023-03-17T20:00:55.229Z,92356.00
2023-03-17T20:01:56.265Z,92365.00
2023-03-17T20:02:55.371Z,92364.00
2023-03-17T20:03:55.438Z,92362.00
2023-03-17T20:04:55.607Z,92362.00
2023-03-17T20:05:55.592Z,92354.00
2023-03-17T20:06:55.819Z,92358.00
2023-03-17T20:07:56.257Z,92352.00
2023-03-17T20:08:55.798Z,92352.00
2023-03-17T20:09:55.946Z,92365.00
2023-03-17T20:10:55.953Z,92365.00
2023-03-17T20:11:56.020Z,92360.00
2023-03-17T20:12:56.086Z,92365.00
2023-03-17T20:13:56.176Z,92362.00
2023-03-17T20:14:56.243Z,92364.00
2023-03-17T20:15:56.333Z,92369.00
2023-03-17T20:16:56.377Z,92365.00
2023-03-17T20:17:56.445Z,92364.00
2023-03-17T20:18:56.564Z,92373.00
2023-03-17T20:19:56.626Z,92375.00
2023-03-17T20:20:56.775Z,92373.00
2023-03-17T20:21:56.767Z,92367.00
2023-03-17T20:22:56.843Z,92373.00
2023-03-17T20:23:56.925Z,92379.00
2023-03-17T20:24:56.995Z,92377.00
2023-03-17T20:25:57.102Z,92367.00
2023-03-17T20:26:57.230Z,92364.00
2023-03-17T20:27:57.273Z,92381.00
2023-03-17T20:28:57.303Z,92393.00
2023-03-17T20:29:57.379Z,92393.00
2023-03-17T20:30:57.481Z,92393.00
2023-03-17T20:31:57.542Z,92393.00
2023-03-17T20:32:57.645Z,92385.00
2023-03-17T20:33:57.665Z,92387.00
2023-03-17T20:34:57.732Z,92389.00
2023-03-17T20:35:57.841Z,92389.00
2023-03-17T20:36:57.892Z,92385.00
2023-03-17T20:37:57.993Z,92381.00
2023-03-17T20:38:58.046Z,92379.00
2023-03-17T20:39:58.134Z,92379.00
2023-03-17T20:40:58.217Z,92373.00
2023-03-17T20:41:58.300Z,92365.00
2023-03-17T20:42:58.383Z,92377.00
2023-03-17T20:43:58.469Z,92379.00
2023-03-17T20:44:58.532Z,92373.00
2023-03-17T20:45:58.599Z,92362.00
2023-03-17T20:46:58.791Z,92352.00
2023-03-17T20:47:58.754Z,92371.00
2023-03-17T20:48:59.078Z,92383.00
2023-03-17T20:49:58.957Z,92365.00
2023-03-17T20:50:58.981Z,92371.00
2023-03-17T20:51:59.037Z,92365.00
2023-03-17T20:52:59.123Z,92375.00
2023-03-17T20:53:59.216Z,92373.00
2023-03-17T20:54:59.527Z,92375.00
2023-03-17T20:55:59.376Z,92375.00
2023-03-17T20:57:00.265Z,92379.00
2023-03-17T20:57:59.525Z,92377.00
2023-03-17T20:58:59.612Z,92373.00
2023-03-17T20:59:59.709Z,92377.00
2023-03-17T21:00:59.764Z,92381.00
2023-03-17T21:01:59.918Z,92381.00
2023-03-17T21:02:59.959Z,92377.00
2023-03-17T21:04:00.022Z,92389.00
2023-03-17T21:05:00.116Z,92387.00
2023-03-17T21:06:00.170Z,92383.00
2023-03-17T21:07:00.232Z,92379.00
2023-03-17T21:08:00.307Z,92377.00
2023-03-17T21:09:00.406Z,92371.00
2023-03-17T21:10:00.466Z,92375.00
2023-03-17T21:11:00.570Z,92377.00
2023-03-17T21:12:00.638Z,92387.00
2023-03-17T21:13:00.714Z,92385.00
2023-03-17T21:14:00.785Z,92389.00
2023-03-17T21:15:01.196Z,92383.00
2023-03-17T21:16:00.981Z,92387.00
2023-03-17T21:17:01.014Z,92387.00
2023-03-17T21:18:01.124Z,92387.00
2023-03-17T21:19:01.174Z,92391.00
2023-03-17T21:20:01.268Z,92389.00
2023-03-17T21:21:01.328Z,92401.00
2023-03-17T21:22:01.405Z,92393.00
2023-03-17T21:23:01.489Z,92391.00
2023-03-17T21:24:01.566Z,92395.00
2023-03-17T21:25:01.650Z,92407.00
2023-03-17T21:26:01.734Z,92399.00
2023-03-17T21:27:01.808Z,92387.00
2023-03-17T21:28:01.893Z,92389.00
2023-03-17T21:29:01.975Z,92393.00
2023-03-17T21:30:02.037Z,92395.00
2023-03-17T21:31:02.176Z,92399.00
2023-03-17T21:32:02.256Z,92405.00
2023-03-17T21:33:02.344Z,92397.00
2023-03-17T21:34:02.356Z,92389.00
2023-03-17T21:35:02.447Z,92383.00
2023-03-17T21:36:02.531Z,92393.00
2023-03-17T21:37:02.602Z,92405.00
2023-03-17T21:39:02.659Z,92420.00
2023-03-17T21:40:02.722Z,92403.00
2023-03-17T21:41:02.779Z,92403.00
2023-03-17T21:42:02.857Z,92399.00
2023-03-17T21:43:02.928Z,92397.00
2023-03-17T21:44:02.975Z,92405.00
2023-03-17T21:45:03.015Z,92407.00
2023-03-17T21:46:03.139Z,92401.00
2023-03-17T21:47:03.117Z,92411.00
2023-03-17T21:48:03.179Z,92409.00
2023-03-17T21:49:03.216Z,92397.00
2023-03-17T21:50:03.311Z,92403.00
2023-03-17T21:51:03.289Z,92403.00
2023-03-17T21:52:03.342Z,92412.00
2023-03-17T21:53:03.422Z,92403.00
2023-03-17T21:54:03.459Z,92399.00
2023-03-17T21:55:03.533Z,92405.00
2023-03-17T21:56:03.617Z,92409.00
2023-03-17T21:57:03.666Z,92403.00
2023-03-17T21:58:03.735Z,92405.00
2023-03-17T21:59:03.796Z,92401.00
2023-03-17T22:01:03.930Z,92407.00
2023-03-17T22:05:04.174Z,92414.00
2023-03-17T22:09:04.467Z,92412.00
2023-03-17T22:10:04.517Z,92430.00
2023-03-17T22:20:04.855Z,92440.00
2023-03-17T22:31:05.131Z,92438.00
2023-03-17T22:47:05.624Z,92442.00
2023-03-17T22:48:05.649Z,92440.00
2023-03-17T22:49:05.676Z,92442.00
2023-03-17T22:50:05.695Z,92444.00
2023-03-17T22:51:05.769Z,92444.00
2023-03-17T22:52:05.744Z,92442.00
2023-03-17T22:53:05.773Z,92450.00
2023-03-17T22:54:05.816Z,92448.00
2023-03-17T22:55:05.815Z,92450.00
2023-03-17T22:56:05.867Z,92448.00
2023-03-17T22:57:05.959Z,92454.00
2023-03-17T22:59:05.898Z,92461.00
2023-03-17T23:00:05.946Z,92459.00
2023-03-17T23:01:05.989Z,92454.00
2023-03-17T23:02:05.975Z,92459.00
2023-03-17T23:06:06.006Z,92459.00
2023-03-17T23:07:06.016Z,92456.00
2023-03-17T23:08:06.026Z,92459.00
2023-03-17T23:09:06.033Z,92458.00
2023-03-17T23:10:06.071Z,92465.00
2023-03-17T23:11:06.112Z,92459.00
2023-03-17T23:12:06.120Z,92459.00
2023-03-17T23:14:06.161Z,92463.00
2023-03-17T23:15:06.227Z,92459.00
2023-03-17T23:16:06.214Z,92456.00
2023-03-17T23:17:06.431Z,92458.00
2023-03-17T23:18:06.288Z,92459.00
2023-03-17T23:19:06.332Z,92458.00
2023-03-17T23:20:06.445Z,92459.00
2023-03-17T23:21:06.398Z,92456.00
